createdAt,value
2016-12-12T00:00:31.779Z,0
2016-12-12T00:01:42.521Z,0
2016-12-12T00:02:53.242Z,0
2016-12-12T00:04:03.993Z,0
2016-12-12T00:05:14.730Z,0
2016-12-12T00:06:25.454Z,0
2016-12-12T00:07:36.205Z,0
2016-12-12T00:08:46.963Z,0
2016-12-12T00:09:57.697Z,0
2016-12-12T00:11:08.492Z,0
2016-12-12T00:12:19.210Z,0
2016-12-12T00:13:29.952Z,0
2016-12-12T00:14:40.705Z,0
2016-12-12T00:15:51.444Z,0
2016-12-12T00:17:02.199Z,0
2016-12-12T00:18:12.946Z,0
2016-12-12T00:19:23.683Z,0
2016-12-12T00:20:34.426Z,0
2016-12-12T00:21:45.153Z,0
2016-12-12T00:22:55.879Z,0
2016-12-12T00:24:06.596Z,0
2016-12-12T00:25:17.346Z,0
2016-12-12T00:26:28.091Z,0
2016-12-12T00:27:39.140Z,0
2016-12-12T00:28:49.864Z,0
2016-12-12T00:30:00.600Z,0
2016-12-12T00:31:11.346Z,0
2016-12-12T00:32:22.072Z,0
2016-12-12T00:33:32.830Z,0
2016-12-12T00:34:43.584Z,0
2016-12-12T00:35:54.305Z,0
2016-12-12T00:37:05.023Z,0
2016-12-12T00:38:15.790Z,0
2016-12-12T00:39:26.541Z,0
2016-12-12T00:40:37.273Z,0
2016-12-12T00:41:48.010Z,0
2016-12-12T00:42:58.761Z,0
2016-12-12T00:44:09.511Z,0
2016-12-12T00:45:20.249Z,0
2016-12-12T00:46:30.991Z,0
2016-12-12T00:47:41.720Z,0
2016-12-12T00:48:52.479Z,0
2016-12-12T00:50:03.183Z,0
2016-12-12T00:51:13.921Z,0
2016-12-12T00:52:24.654Z,0
2016-12-12T00:53:35.393Z,0
2016-12-12T00:54:46.117Z,0
2016-12-12T00:55:56.854Z,0
2016-12-12T00:57:07.606Z,0
2016-12-12T00:58:18.330Z,0
2016-12-12T00:59:29.053Z,0
2016-12-12T01:00:39.752Z,0
2016-12-12T01:01:50.468Z,0
2016-12-12T01:03:01.165Z,0
2016-12-12T01:04:11.891Z,0
2016-12-12T01:05:22.637Z,0
2016-12-12T01:06:33.383Z,0
2016-12-12T01:07:44.127Z,0
2016-12-12T01:08:54.875Z,0
2016-12-12T01:10:05.620Z,0
2016-12-12T01:11:16.662Z,0
2016-12-12T01:12:27.405Z,0
2016-12-12T01:13:38.129Z,0
2016-12-12T01:14:48.843Z,0
2016-12-12T01:15:59.597Z,0
2016-12-12T01:17:10.317Z,0
2016-12-12T01:18:21.038Z,0
2016-12-12T01:19:31.764Z,0
2016-12-12T01:20:42.510Z,0
2016-12-12T01:21:53.256Z,0
2016-12-12T01:23:04.001Z,0
2016-12-12T01:24:15.062Z,0
2016-12-12T01:25:25.790Z,0
2016-12-12T01:26:36.507Z,0
2016-12-12T01:27:47.229Z,0
2016-12-12T01:28:57.956Z,0
2016-12-12T01:30:08.703Z,0
2016-12-12T01:31:19.446Z,0
2016-12-12T01:32:30.172Z,0
2016-12-12T01:33:41.237Z,0
2016-12-12T01:34:51.983Z,0
2016-12-12T01:36:02.733Z,0
2016-12-12T01:37:13.479Z,0
2016-12-12T01:38:24.223Z,0
2016-12-12T01:39:34.967Z,0
2016-12-12T01:40:45.711Z,0
2016-12-12T01:41:56.435Z,0
2016-12-12T01:43:07.189Z,0
2016-12-12T01:44:17.926Z,0
2016-12-12T01:45:28.664Z,0
2016-12-12T01:46:39.394Z,0
2016-12-12T01:47:50.119Z,0
2016-12-12T01:49:00.835Z,0
2016-12-12T01:50:11.586Z,0
2016-12-12T01:51:22.352Z,0
2016-12-12T01:52:33.078Z,0
2016-12-12T01:53:43.798Z,0
2016-12-12T01:54:54.519Z,0
2016-12-12T01:56:05.262Z,0
2016-12-12T01:57:15.987Z,0
2016-12-12T01:58:26.732Z,0
2016-12-12T01:59:37.502Z,0
2016-12-12T02:00:48.217Z,0
2016-12-12T02:01:58.963Z,0
2016-12-12T02:03:09.718Z,0
2016-12-12T02:04:20.479Z,0
2016-12-12T02:05:31.204Z,0
2016-12-12T02:06:41.930Z,0
2016-12-12T02:07:52.648Z,0
2016-12-12T02:09:03.371Z,0
2016-12-12T02:10:14.121Z,0
2016-12-12T02:11:24.890Z,0
2016-12-12T02:12:35.633Z,0
2016-12-12T02:13:46.398Z,0
2016-12-12T02:14:57.152Z,0
2016-12-12T02:16:07.898Z,0
2016-12-12T02:17:18.615Z,0
2016-12-12T02:18:29.341Z,0
2016-12-12T02:19:40.107Z,0
2016-12-12T02:20:50.830Z,0
2016-12-12T02:22:01.549Z,0
2016-12-12T02:23:12.316Z,0
2016-12-12T02:24:23.047Z,0
2016-12-12T02:25:33.793Z,0
2016-12-12T02:26:44.833Z,0
2016-12-12T02:27:55.546Z,0
2016-12-12T02:29:06.346Z,0
2016-12-12T02:30:17.121Z,0
2016-12-12T02:31:27.847Z,0
2016-12-12T02:32:38.592Z,0
2016-12-12T02:33:49.338Z,0
2016-12-12T02:35:00.081Z,0
2016-12-12T02:36:10.801Z,0
2016-12-12T02:37:21.514Z,0
2016-12-12T02:38:32.236Z,0
2016-12-12T02:39:42.967Z,0
2016-12-12T02:40:54.015Z,0
2016-12-12T02:42:04.760Z,0
2016-12-12T02:43:15.482Z,0
2016-12-12T02:44:26.227Z,0
2016-12-12T02:45:36.974Z,0
2016-12-12T02:46:48.040Z,0
2016-12-12T02:47:58.740Z,0
2016-12-12T02:49:09.458Z,0
2016-12-12T02:50:20.178Z,0
2016-12-12T02:51:30.924Z,0
2016-12-12T02:52:41.650Z,0
2016-12-12T02:53:52.397Z,0
2016-12-12T02:55:03.137Z,0
2016-12-12T02:56:13.833Z,0
2016-12-12T02:57:24.555Z,0
2016-12-12T02:58:35.304Z,0
2016-12-12T02:59:46.039Z,0
2016-12-12T03:00:56.769Z,0
2016-12-12T03:02:07.793Z,0
2016-12-12T03:03:18.539Z,0
2016-12-12T03:04:29.276Z,0
2016-12-12T03:05:40.018Z,0
2016-12-12T03:06:50.779Z,0
2016-12-12T03:08:01.549Z,0
2016-12-12T03:09:12.293Z,0
2016-12-12T03:10:23.360Z,0
2016-12-12T03:11:34.063Z,0
2016-12-12T03:12:44.803Z,0
2016-12-12T03:13:55.523Z,0
2016-12-12T03:15:06.224Z,0
2016-12-12T03:16:16.965Z,0
2016-12-12T03:17:27.691Z,0
2016-12-12T03:18:38.454Z,0
2016-12-12T03:19:49.195Z,0
2016-12-12T03:20:59.928Z,0
2016-12-12T03:22:10.650Z,0
2016-12-12T03:23:21.413Z,0
2016-12-12T03:24:32.112Z,0
2016-12-12T03:25:42.833Z,0
2016-12-12T03:26:53.554Z,0
2016-12-12T03:28:04.291Z,0
2016-12-12T03:29:15.027Z,0
2016-12-12T03:30:25.773Z,0
2016-12-12T03:31:36.488Z,0
2016-12-12T03:32:47.238Z,0
2016-12-12T03:33:57.973Z,0
2016-12-12T03:35:08.704Z,0
2016-12-12T03:36:19.447Z,0
2016-12-12T03:37:30.168Z,0
2016-12-12T03:38:40.906Z,0
2016-12-12T03:39:51.660Z,0
2016-12-12T03:41:02.383Z,0
2016-12-12T03:42:13.129Z,0
2016-12-12T03:43:23.873Z,0
2016-12-12T03:44:34.573Z,0
2016-12-12T03:45:45.333Z,0
2016-12-12T03:46:56.128Z,0
2016-12-12T03:48:06.865Z,0
2016-12-12T03:49:17.596Z,0
2016-12-12T03:50:28.340Z,0
2016-12-12T03:51:39.087Z,0
2016-12-12T03:52:49.858Z,0
2016-12-12T03:54:00.611Z,0
2016-12-12T03:55:11.336Z,0
2016-12-12T03:56:22.109Z,0
2016-12-12T03:57:32.867Z,0
2016-12-12T03:58:43.571Z,0
2016-12-12T03:59:54.316Z,0
2016-12-12T04:01:05.062Z,0
2016-12-12T04:02:15.808Z,0
2016-12-12T04:03:26.555Z,0
2016-12-12T04:04:37.295Z,0
2016-12-12T04:05:48.021Z,0
2016-12-12T04:06:58.747Z,0
2016-12-12T04:08:09.496Z,0
2016-12-12T04:09:20.239Z,0
2016-12-12T04:10:30.961Z,0
2016-12-12T04:11:41.702Z,0
2016-12-12T04:12:52.447Z,0
2016-12-12T04:14:03.161Z,0
2016-12-12T04:15:13.888Z,0
2016-12-12T04:16:24.589Z,0
2016-12-12T04:17:35.306Z,0
2016-12-12T04:18:46.070Z,0
2016-12-12T04:19:56.799Z,0
2016-12-12T04:21:07.540Z,0
2016-12-12T04:22:18.265Z,0
2016-12-12T04:23:28.991Z,0
2016-12-12T04:24:39.737Z,0
2016-12-12T04:25:50.495Z,0
2016-12-12T04:27:01.253Z,0
2016-12-12T04:28:11.998Z,0
2016-12-12T04:29:22.718Z,0
2016-12-12T04:30:33.440Z,0
2016-12-12T04:31:44.187Z,0
2016-12-12T04:32:54.932Z,0
2016-12-12T04:34:05.673Z,0
2016-12-12T04:35:16.441Z,0
2016-12-12T04:36:27.195Z,0
2016-12-12T04:37:37.954Z,0
2016-12-12T04:38:49.011Z,0
2016-12-12T04:39:59.775Z,0
2016-12-12T04:41:10.501Z,0
2016-12-12T04:42:21.220Z,0
2016-12-12T04:43:31.940Z,0
2016-12-12T04:44:42.688Z,0
2016-12-12T04:45:53.436Z,0
2016-12-12T04:47:04.178Z,0
2016-12-12T04:48:14.901Z,0
2016-12-12T04:49:25.645Z,0
2016-12-12T04:50:36.369Z,0
2016-12-12T04:51:47.111Z,0
2016-12-12T04:52:57.853Z,0
2016-12-12T04:54:08.584Z,0
2016-12-12T04:55:19.328Z,0
2016-12-12T04:56:30.073Z,0
2016-12-12T04:57:40.815Z,0
2016-12-12T04:58:51.561Z,0
2016-12-12T05:00:02.332Z,0
2016-12-12T05:01:13.057Z,0
2016-12-12T05:02:23.819Z,0
2016-12-12T05:03:34.545Z,0
2016-12-12T05:04:45.563Z,0
2016-12-12T05:05:56.288Z,0
2016-12-12T05:07:07.633Z,0
2016-12-12T05:08:18.388Z,0
2016-12-12T05:09:29.155Z,0
2016-12-12T05:10:39.902Z,0
2016-12-12T05:11:50.659Z,0
2016-12-12T05:13:01.409Z,0
2016-12-12T05:14:12.176Z,0
2016-12-12T05:15:22.926Z,0
2016-12-12T05:16:33.654Z,0
2016-12-12T05:17:44.398Z,0
2016-12-12T05:18:55.120Z,0
2016-12-12T05:20:05.860Z,0
2016-12-12T05:21:16.592Z,0
2016-12-12T05:22:27.631Z,0
2016-12-12T05:23:38.351Z,0
2016-12-12T05:24:49.052Z,0
2016-12-12T05:25:59.819Z,0
2016-12-12T05:27:10.517Z,0
2016-12-12T05:28:21.261Z,0
2016-12-12T05:29:32.008Z,0
2016-12-12T05:30:42.760Z,0
2016-12-12T05:31:53.522Z,0
2016-12-12T05:33:04.270Z,0
2016-12-12T05:34:14.996Z,0
2016-12-12T05:35:25.743Z,0
2016-12-12T05:36:36.502Z,0
2016-12-12T05:37:47.230Z,0
2016-12-12T05:38:57.950Z,0
2016-12-12T05:40:08.672Z,0
2016-12-12T05:41:19.369Z,0
2016-12-12T05:42:30.090Z,0
2016-12-12T05:43:40.806Z,0
2016-12-12T05:44:51.548Z,0
2016-12-12T05:46:02.281Z,0
2016-12-12T05:47:13.046Z,0
2016-12-12T05:48:23.745Z,0
2016-12-12T05:49:34.482Z,0
2016-12-12T05:50:45.215Z,0
2016-12-12T05:51:55.957Z,0
2016-12-12T05:53:06.682Z,0
2016-12-12T05:54:17.424Z,0
2016-12-12T05:55:28.174Z,0
2016-12-12T05:56:38.920Z,0
2016-12-12T05:57:49.662Z,0
2016-12-12T05:59:00.388Z,0
2016-12-12T06:00:11.135Z,0
2016-12-12T06:01:21.868Z,0
2016-12-12T06:02:32.600Z,0
2016-12-12T06:03:43.359Z,0
2016-12-12T06:04:54.090Z,0
2016-12-12T06:06:04.856Z,0
2016-12-12T06:07:15.627Z,0
2016-12-12T06:08:26.377Z,0
2016-12-12T06:09:37.127Z,0
2016-12-12T06:10:47.870Z,0
2016-12-12T06:11:58.607Z,0
2016-12-12T06:13:09.361Z,0
2016-12-12T06:14:20.111Z,0
2016-12-12T06:15:30.827Z,0
2016-12-12T06:16:41.549Z,0
2016-12-12T06:17:52.287Z,0
2016-12-12T06:19:03.016Z,0
2016-12-12T06:20:13.767Z,0
2016-12-12T06:21:24.508Z,0
2016-12-12T06:22:35.233Z,0
2016-12-12T06:23:45.975Z,0
2016-12-12T06:24:56.696Z,0
2016-12-12T06:26:07.417Z,0
2016-12-12T06:27:18.157Z,0
2016-12-12T06:28:28.888Z,0
2016-12-12T06:29:39.635Z,0
2016-12-12T06:30:50.399Z,0
2016-12-12T06:32:01.126Z,0
2016-12-12T06:33:11.890Z,0
2016-12-12T06:34:22.615Z,4
2016-12-12T06:35:33.352Z,4
2016-12-12T06:36:44.081Z,0
2016-12-12T06:37:54.827Z,4
2016-12-12T06:39:05.553Z,4
2016-12-12T06:40:16.303Z,4
2016-12-12T06:41:27.040Z,4
2016-12-12T06:42:37.740Z,4
2016-12-12T06:43:48.483Z,8
2016-12-12T06:44:59.204Z,8
2016-12-12T06:46:09.947Z,8
2016-12-12T06:47:20.672Z,12
2016-12-12T06:48:31.416Z,12
2016-12-12T06:49:42.137Z,12
2016-12-12T06:50:52.875Z,16
2016-12-12T06:52:03.629Z,28
2016-12-12T06:53:14.379Z,36
2016-12-12T06:54:25.100Z,40
2016-12-12T06:55:35.835Z,44
2016-12-12T06:56:46.563Z,56
2016-12-12T06:57:57.261Z,68
2016-12-12T06:59:07.987Z,72
2016-12-12T07:00:18.733Z,72
2016-12-12T07:01:29.464Z,84
2016-12-12T07:02:40.223Z,84
2016-12-12T07:03:50.967Z,92
2016-12-12T07:05:01.728Z,120
2016-12-12T07:06:12.456Z,160
2016-12-12T07:07:23.199Z,224
2016-12-12T07:08:33.940Z,264
2016-12-12T07:09:44.670Z,268
2016-12-12T07:10:55.394Z,260
2016-12-12T07:12:06.157Z,244
2016-12-12T07:13:16.865Z,244
2016-12-12T07:14:27.603Z,244
2016-12-12T07:15:38.324Z,248
2016-12-12T07:16:49.050Z,244
2016-12-12T07:17:59.798Z,264
2016-12-12T07:19:10.517Z,284
2016-12-12T07:20:21.263Z,284
2016-12-12T07:21:31.971Z,268
2016-12-12T07:22:42.700Z,264
2016-12-12T07:23:53.418Z,272
2016-12-12T07:25:04.168Z,304
2016-12-12T07:26:14.892Z,312
2016-12-12T07:27:25.634Z,352
2016-12-12T07:28:36.360Z,416
2016-12-12T07:29:47.098Z,456
2016-12-12T07:30:57.827Z,480
2016-12-12T07:32:08.544Z,456
2016-12-12T07:33:19.290Z,412
2016-12-12T07:34:30.008Z,464
2016-12-12T07:35:40.729Z,492
2016-12-12T07:36:51.453Z,496
2016-12-12T07:38:02.204Z,448
2016-12-12T07:39:12.975Z,556
2016-12-12T07:40:23.754Z,664
2016-12-12T07:41:34.509Z,580
2016-12-12T07:42:45.239Z,676
2016-12-12T07:43:55.997Z,852
2016-12-12T07:45:06.706Z,924
2016-12-12T07:46:17.454Z,920
2016-12-12T07:47:28.197Z,724
2016-12-12T07:48:38.968Z,500
2016-12-12T07:49:49.689Z,596
2016-12-12T07:51:00.434Z,776
2016-12-12T07:52:11.181Z,772
2016-12-12T07:53:22.215Z,776
2016-12-12T07:54:32.954Z,1120
2016-12-12T07:55:43.719Z,1096
2016-12-12T07:56:54.460Z,972
2016-12-12T07:58:05.181Z,964
2016-12-12T07:59:15.930Z,892
2016-12-12T08:00:26.656Z,944
2016-12-12T08:01:37.400Z,852
2016-12-12T08:02:48.195Z,1244
2016-12-12T08:03:58.937Z,1548
2016-12-12T08:05:09.700Z,1732
2016-12-12T08:06:20.428Z,1860
2016-12-12T08:07:31.142Z,1392
2016-12-12T08:08:41.892Z,1236
2016-12-12T08:09:52.641Z,1344
2016-12-12T08:11:03.393Z,1488
2016-12-12T08:12:14.133Z,1444
2016-12-12T08:13:24.854Z,1488
2016-12-12T08:14:35.576Z,1604
2016-12-12T08:15:46.328Z,2032
2016-12-12T08:16:57.043Z,1988
2016-12-12T08:18:07.789Z,2236
2016-12-12T08:19:18.513Z,2460
2016-12-12T08:20:29.261Z,2468
2016-12-12T08:21:40.027Z,1996
2016-12-12T08:22:50.773Z,2132
2016-12-12T08:24:01.520Z,2244
2016-12-12T08:25:12.275Z,1556
2016-12-12T08:26:23.059Z,1356
2016-12-12T08:27:33.804Z,1028
2016-12-12T08:28:44.525Z,860
2016-12-12T08:29:55.266Z,812
2016-12-12T08:31:05.995Z,788
2016-12-12T08:32:16.716Z,696
2016-12-12T08:33:27.421Z,964
2016-12-12T08:34:38.162Z,1840
2016-12-12T08:35:48.921Z,2480
2016-12-12T08:36:59.633Z,2632
2016-12-12T08:38:10.368Z,2544
2016-12-12T08:39:21.122Z,2660
2016-12-12T08:40:31.863Z,2720
2016-12-12T08:41:42.584Z,3488
2016-12-12T08:42:53.310Z,3244
2016-12-12T08:44:04.051Z,3736
2016-12-12T08:45:14.798Z,4404
2016-12-12T08:46:25.493Z,5576
2016-12-12T08:47:36.219Z,3876
2016-12-12T08:48:47.265Z,3120
2016-12-12T08:49:58.024Z,2308
2016-12-12T08:51:08.749Z,2036
2016-12-12T08:52:19.466Z,1800
2016-12-12T08:53:30.195Z,1580
2016-12-12T08:54:40.944Z,1308
2016-12-12T08:55:51.692Z,1140
2016-12-12T08:57:02.450Z,1108
2016-12-12T08:58:13.174Z,1208
2016-12-12T08:59:23.903Z,1500
2016-12-12T09:00:34.652Z,2372
2016-12-12T09:01:45.395Z,2500
2016-12-12T09:02:56.134Z,2472
2016-12-12T09:04:06.888Z,2624
2016-12-12T09:05:18.251Z,3036
2016-12-12T09:06:28.981Z,3236
2016-12-12T09:07:39.721Z,3332
2016-12-12T09:08:50.447Z,2688
2016-12-12T09:10:01.192Z,2732
2016-12-12T09:11:11.957Z,2548
2016-12-12T09:12:22.705Z,2652
2016-12-12T09:13:33.472Z,3432
2016-12-12T09:14:44.202Z,3588
2016-12-12T09:15:54.922Z,3580
2016-12-12T09:17:05.671Z,3624
2016-12-12T09:18:16.406Z,3464
2016-12-12T09:19:27.166Z,2736
2016-12-12T09:20:37.907Z,2392
2016-12-12T09:21:48.649Z,2164
2016-12-12T09:22:59.391Z,2076
2016-12-12T09:24:10.090Z,2068
2016-12-12T09:25:20.841Z,2064
2016-12-12T09:26:31.586Z,2164
2016-12-12T09:27:42.306Z,1884
2016-12-12T09:28:53.066Z,1724
2016-12-12T09:30:03.800Z,1812
2016-12-12T09:31:14.533Z,1668
2016-12-12T09:32:25.287Z,1452
2016-12-12T09:33:36.037Z,1332
2016-12-12T09:34:46.779Z,1356
2016-12-12T09:35:57.826Z,1388
2016-12-12T09:37:08.554Z,1500
2016-12-12T09:38:19.296Z,1564
2016-12-12T09:39:30.039Z,1784
2016-12-12T09:40:40.752Z,2000
2016-12-12T09:41:51.534Z,2180
2016-12-12T09:43:02.276Z,2088
2016-12-12T09:44:12.997Z,2116
2016-12-12T09:45:23.744Z,2184
2016-12-12T09:46:34.468Z,2192
2016-12-12T09:47:45.212Z,2256
2016-12-12T09:48:55.978Z,2188
2016-12-12T09:50:06.706Z,2160
2016-12-12T09:51:17.448Z,2232
2016-12-12T09:52:28.170Z,2220
2016-12-12T09:53:38.871Z,2284
2016-12-12T09:54:49.611Z,2268
2016-12-12T09:56:00.355Z,2216
2016-12-12T09:57:11.107Z,2200
2016-12-12T09:58:21.831Z,2268
2016-12-12T09:59:32.549Z,2460
2016-12-12T10:00:43.291Z,2896
2016-12-12T10:01:54.018Z,2952
2016-12-12T10:03:05.055Z,3124
2016-12-12T10:04:15.810Z,3504
2016-12-12T10:05:26.554Z,3764
2016-12-12T10:06:37.300Z,3808
2016-12-12T10:07:48.047Z,3648
2016-12-12T10:08:58.780Z,3696
2016-12-12T10:10:09.534Z,4540
2016-12-12T10:11:20.280Z,5172
2016-12-12T10:12:31.006Z,6300
2016-12-12T10:13:41.745Z,7172
2016-12-12T10:14:52.474Z,7700
2016-12-12T10:16:03.211Z,8016
2016-12-12T10:17:13.911Z,7640
2016-12-12T10:18:24.661Z,8748
2016-12-12T10:19:35.394Z,9188
2016-12-12T10:20:46.123Z,8904
2016-12-12T10:21:56.865Z,8432
2016-12-12T10:23:07.912Z,8716
2016-12-12T10:24:18.640Z,8628
2016-12-12T10:25:29.375Z,8408
2016-12-12T10:26:40.109Z,8032
2016-12-12T10:27:50.854Z,7252
2016-12-12T10:29:01.600Z,6152
2016-12-12T10:30:12.620Z,6328
2016-12-12T10:31:23.662Z,7208
2016-12-12T10:32:34.688Z,6524
2016-12-12T10:33:45.411Z,6572
2016-12-12T10:34:56.147Z,6004
2016-12-12T10:36:06.893Z,5708
2016-12-12T10:37:17.918Z,6004
2016-12-12T10:38:28.680Z,5912
2016-12-12T10:39:39.431Z,5288
2016-12-12T10:40:50.131Z,5256
2016-12-12T10:42:00.880Z,4968
2016-12-12T10:43:11.652Z,5104
2016-12-12T10:44:22.440Z,5560
2016-12-12T10:45:33.210Z,5760
2016-12-12T10:46:43.939Z,6176
2016-12-12T10:47:54.660Z,5100
2016-12-12T10:49:05.407Z,5528
2016-12-12T10:50:16.152Z,5564
2016-12-12T10:51:26.899Z,5436
2016-12-12T10:52:37.644Z,5312
2016-12-12T10:53:48.381Z,5180
2016-12-12T10:54:59.086Z,5036
2016-12-12T10:56:09.832Z,4712
2016-12-12T10:57:20.553Z,4460
2016-12-12T10:58:31.294Z,4232
2016-12-12T10:59:41.996Z,4224
2016-12-12T11:00:53.036Z,4004
2016-12-12T11:02:03.779Z,4300
2016-12-12T11:03:14.803Z,4688
2016-12-12T11:04:25.499Z,4544
2016-12-12T11:05:36.220Z,4336
2016-12-12T11:06:46.949Z,4384
2016-12-12T11:07:57.687Z,4324
2016-12-12T11:09:08.433Z,4232
2016-12-12T11:10:19.155Z,4080
2016-12-12T11:11:29.897Z,3876
2016-12-12T11:12:40.646Z,3748
2016-12-12T11:13:51.372Z,3528
2016-12-12T11:15:02.131Z,3444
2016-12-12T11:16:12.851Z,3448
2016-12-12T11:17:23.584Z,3320
2016-12-12T11:18:34.631Z,3260
2016-12-12T11:19:45.372Z,3220
2016-12-12T11:20:56.093Z,3120
2016-12-12T11:22:06.861Z,3180
2016-12-12T11:23:17.866Z,3188
2016-12-12T11:24:28.609Z,3116
2016-12-12T11:25:39.308Z,3112
2016-12-12T11:26:50.051Z,3136
2016-12-12T11:28:00.773Z,2996
2016-12-12T11:29:11.540Z,2980
2016-12-12T11:30:22.261Z,3016
2016-12-12T11:31:32.986Z,3124
2016-12-12T11:32:44.028Z,3192
2016-12-12T11:33:54.791Z,3172
2016-12-12T11:35:05.551Z,3192
2016-12-12T11:36:16.296Z,3120
2016-12-12T11:37:27.029Z,3064
2016-12-12T11:38:37.773Z,3104
2016-12-12T11:39:48.805Z,3016
2016-12-12T11:40:59.525Z,3072
2016-12-12T11:42:10.263Z,3064
2016-12-12T11:43:20.967Z,3060
2016-12-12T11:44:31.691Z,2988
2016-12-12T11:45:42.450Z,3056
2016-12-12T11:46:53.155Z,3020
2016-12-12T11:48:03.875Z,2992
2016-12-12T11:49:14.603Z,2956
2016-12-12T11:50:25.348Z,3024
2016-12-12T11:51:36.085Z,3016
2016-12-12T11:52:47.110Z,3004
2016-12-12T11:53:57.830Z,3012
2016-12-12T11:55:08.557Z,3012
2016-12-12T11:56:19.303Z,3004
2016-12-12T11:57:30.044Z,3004
2016-12-12T11:58:40.757Z,2996
2016-12-12T11:59:51.483Z,2996
2016-12-12T12:01:02.232Z,2960
2016-12-12T12:02:12.957Z,2968
2016-12-12T12:03:23.698Z,2984
2016-12-12T12:04:34.437Z,2976
2016-12-12T12:05:45.171Z,2972
2016-12-12T12:06:55.886Z,2964
2016-12-12T12:08:06.626Z,2956
2016-12-12T12:09:17.353Z,2948
2016-12-12T12:10:28.079Z,2944
2016-12-12T12:11:38.818Z,2940
2016-12-12T12:12:49.571Z,2928
2016-12-12T12:14:00.318Z,2924
2016-12-12T12:15:11.033Z,2920
2016-12-12T12:16:21.759Z,2920
2016-12-12T12:17:32.522Z,2912
2016-12-12T12:18:43.247Z,2904
2016-12-12T12:19:53.985Z,2900
2016-12-12T12:21:04.692Z,2896
2016-12-12T12:22:15.441Z,2892
2016-12-12T12:23:26.198Z,2880
2016-12-12T12:24:37.210Z,2876
2016-12-12T12:25:47.939Z,2868
2016-12-12T12:26:58.668Z,2860
2016-12-12T12:28:09.419Z,2856
2016-12-12T12:29:20.159Z,2848
2016-12-12T12:30:30.856Z,2844
2016-12-12T12:31:41.576Z,2832
2016-12-12T12:32:52.302Z,2832
2016-12-12T12:34:03.024Z,2824
2016-12-12T12:35:13.811Z,2816
2016-12-12T12:36:24.535Z,2812
2016-12-12T12:37:35.258Z,2804
2016-12-12T12:38:45.982Z,2800
2016-12-12T12:39:56.722Z,2788
2016-12-12T12:41:07.461Z,2784
2016-12-12T12:42:18.190Z,2780
2016-12-12T12:43:28.912Z,2772
2016-12-12T12:44:39.659Z,2764
2016-12-12T12:45:50.382Z,2756
2016-12-12T12:47:01.129Z,2748
2016-12-12T12:48:11.869Z,2744
2016-12-12T12:49:22.612Z,2736
2016-12-12T12:50:33.334Z,2724
2016-12-12T12:51:44.063Z,2716
2016-12-12T12:52:54.821Z,2708
2016-12-12T12:54:05.585Z,2700
2016-12-12T12:55:16.325Z,2692
2016-12-12T12:56:27.047Z,2684
2016-12-12T12:57:37.793Z,2672
2016-12-12T12:58:48.562Z,2660
2016-12-12T12:59:59.304Z,2648
2016-12-12T13:01:10.026Z,2640
2016-12-12T13:02:20.746Z,2628
2016-12-12T13:03:31.468Z,2616
2016-12-12T13:04:42.535Z,2608
2016-12-12T13:05:53.259Z,2596
2016-12-12T13:07:03.973Z,2584
2016-12-12T13:08:14.701Z,2568
2016-12-12T13:09:25.422Z,2556
2016-12-12T13:10:36.147Z,2540
2016-12-12T13:11:46.865Z,2528
2016-12-12T13:12:57.590Z,2516
2016-12-12T13:14:08.314Z,2504
2016-12-12T13:15:19.057Z,2492
2016-12-12T13:16:29.777Z,2476
2016-12-12T13:17:40.493Z,2464
2016-12-12T13:18:51.194Z,2452
2016-12-12T13:20:01.916Z,2436
2016-12-12T13:21:12.657Z,2420
2016-12-12T13:22:23.400Z,2404
2016-12-12T13:23:34.124Z,2392
2016-12-12T13:24:44.844Z,2376
2016-12-12T13:25:55.583Z,2360
2016-12-12T13:27:06.340Z,2340
2016-12-12T13:28:17.057Z,2324
2016-12-12T13:29:27.779Z,2308
2016-12-12T13:30:38.504Z,2292
2016-12-12T13:31:49.251Z,2276
2016-12-12T13:33:00.044Z,2260
2016-12-12T13:34:10.768Z,2240
2016-12-12T13:35:21.508Z,2224
2016-12-12T13:36:32.210Z,2208
2016-12-12T13:37:42.979Z,2188
2016-12-12T13:38:53.738Z,2168
2016-12-12T13:40:04.467Z,2152
2016-12-12T13:41:15.198Z,2132
2016-12-12T13:42:25.940Z,2116
2016-12-12T13:43:36.683Z,2096
2016-12-12T13:44:47.394Z,2076
2016-12-12T13:45:58.147Z,2060
2016-12-12T13:47:08.873Z,2040
2016-12-12T13:48:19.594Z,2020
2016-12-12T13:49:30.344Z,2004
2016-12-12T13:50:41.078Z,1980
2016-12-12T13:51:51.833Z,1956
2016-12-12T13:53:02.567Z,1932
2016-12-12T13:54:13.296Z,1912
2016-12-12T13:55:24.019Z,1888
2016-12-12T13:56:34.742Z,1864
2016-12-12T13:57:45.500Z,1840
2016-12-12T13:58:56.229Z,1816
2016-12-12T14:00:06.954Z,1788
2016-12-12T14:01:17.696Z,1760
2016-12-12T14:02:28.441Z,1736
2016-12-12T14:03:39.169Z,1704
2016-12-12T14:04:49.912Z,1672
2016-12-12T14:06:00.658Z,1644
2016-12-12T14:07:11.397Z,1612
2016-12-12T14:08:22.143Z,1580
2016-12-12T14:09:32.871Z,1548
2016-12-12T14:10:43.614Z,1516
2016-12-12T14:11:54.331Z,1484
2016-12-12T14:13:05.057Z,1452
2016-12-12T14:14:15.776Z,1424
2016-12-12T14:15:26.472Z,1388
2016-12-12T14:16:37.228Z,1356
2016-12-12T14:17:47.982Z,1324
2016-12-12T14:18:58.753Z,1288
2016-12-12T14:20:09.487Z,1256
2016-12-12T14:21:20.232Z,1220
2016-12-12T14:22:30.954Z,1184
2016-12-12T14:23:41.700Z,1148
2016-12-12T14:24:52.419Z,1112
2016-12-12T14:26:03.140Z,1068
2016-12-12T14:27:13.862Z,1024
2016-12-12T14:28:24.608Z,976
2016-12-12T14:29:35.357Z,940
2016-12-12T14:30:46.100Z,904
2016-12-12T14:31:56.845Z,868
2016-12-12T14:33:07.588Z,832
2016-12-12T14:34:18.337Z,796
2016-12-12T14:35:29.035Z,752
2016-12-12T14:36:39.807Z,708
2016-12-12T14:37:50.524Z,668
2016-12-12T14:39:01.297Z,632
2016-12-12T14:40:12.040Z,596
2016-12-12T14:41:22.761Z,556
2016-12-12T14:42:33.497Z,520
2016-12-12T14:43:44.555Z,488
2016-12-12T14:44:55.273Z,452
2016-12-12T14:46:05.997Z,420
2016-12-12T14:47:16.720Z,396
2016-12-12T14:48:27.477Z,368
2016-12-12T14:49:38.185Z,340
2016-12-12T14:50:48.931Z,316
2016-12-12T14:51:59.673Z,292
2016-12-12T14:53:10.398Z,268
2016-12-12T14:54:21.122Z,244
2016-12-12T14:55:31.866Z,224
2016-12-12T14:56:42.606Z,204
2016-12-12T14:57:53.314Z,184
2016-12-12T14:59:04.042Z,168
2016-12-12T15:00:14.751Z,152
2016-12-12T15:01:25.490Z,136
2016-12-12T15:02:36.228Z,120
2016-12-12T15:03:47.282Z,108
2016-12-12T15:04:58.050Z,96
2016-12-12T15:06:08.795Z,84
2016-12-12T15:07:19.495Z,72
2016-12-12T15:08:30.237Z,64
2016-12-12T15:09:40.958Z,52
2016-12-12T15:10:51.683Z,48
2016-12-12T15:12:02.425Z,40
2016-12-12T15:13:13.153Z,32
2016-12-12T15:14:23.894Z,28
2016-12-12T15:15:34.592Z,20
2016-12-12T15:16:45.317Z,20
2016-12-12T15:17:56.032Z,16
2016-12-12T15:19:06.734Z,12
2016-12-12T15:20:17.493Z,12
2016-12-12T15:21:28.226Z,8
2016-12-12T15:22:38.945Z,8
2016-12-12T15:23:49.655Z,8
2016-12-12T15:25:00.384Z,4
2016-12-12T15:26:11.108Z,4
2016-12-12T15:27:21.836Z,4
2016-12-12T15:28:32.564Z,4
2016-12-12T15:29:43.292Z,0
2016-12-12T15:30:54.315Z,4
2016-12-12T15:32:05.031Z,4
2016-12-12T15:33:15.762Z,0
2016-12-12T15:34:26.495Z,0
2016-12-12T15:35:37.552Z,0
2016-12-12T15:36:48.300Z,0
2016-12-12T15:37:59.344Z,0
2016-12-12T15:39:10.086Z,0
2016-12-12T15:40:20.828Z,0
2016-12-12T15:41:31.557Z,0
2016-12-12T15:42:42.278Z,0
2016-12-12T15:43:53.019Z,0
2016-12-12T15:45:03.763Z,0
2016-12-12T15:46:14.512Z,0
2016-12-12T15:47:25.232Z,0
2016-12-12T15:48:35.958Z,0
2016-12-12T15:49:46.681Z,0
2016-12-12T15:50:57.426Z,0
2016-12-12T15:52:08.166Z,0
2016-12-12T15:53:18.881Z,0
2016-12-12T15:54:29.909Z,0
2016-12-12T15:55:40.633Z,0
2016-12-12T15:56:51.375Z,0
2016-12-12T15:58:02.093Z,0
2016-12-12T15:59:12.842Z,0
2016-12-12T16:00:23.568Z,0
2016-12-12T16:01:34.284Z,0
2016-12-12T16:02:45.010Z,0
2016-12-12T16:03:55.733Z,0
2016-12-12T16:05:06.478Z,0
2016-12-12T16:06:17.215Z,0
2016-12-12T16:07:28.268Z,0
2016-12-12T16:08:39.014Z,0
2016-12-12T16:09:49.736Z,0
2016-12-12T16:11:00.499Z,0
2016-12-12T16:12:11.248Z,0
2016-12-12T16:13:21.977Z,0
2016-12-12T16:14:32.716Z,0
2016-12-12T16:15:43.436Z,0
2016-12-12T16:16:54.163Z,0
2016-12-12T16:18:04.879Z,0
2016-12-12T16:19:15.596Z,0
2016-12-12T16:20:26.313Z,0
2016-12-12T16:21:37.047Z,0
2016-12-12T16:22:47.785Z,0
2016-12-12T16:23:58.509Z,0
2016-12-12T16:25:09.230Z,0
2016-12-12T16:26:19.951Z,0
2016-12-12T16:27:30.714Z,0
2016-12-12T16:28:41.465Z,0
2016-12-12T16:29:52.207Z,0
2016-12-12T16:31:02.910Z,0
2016-12-12T16:32:13.631Z,0
2016-12-12T16:33:24.354Z,0
2016-12-12T16:34:35.074Z,0
2016-12-12T16:35:45.794Z,0